Solsberry, Indiana
Current Conditions -  °F | °C
As of 3:53 AM on Sunday 23 Nov 2014 (Local Time) from KBMG Reporting Station
Overcast Overcast  
Wind Chill: 51°   Ceiling: 7500
Heat Index: 51°   Visibility: 10mi
Dew Point: 40°   Wind: 8mph
Humidity: 66%   Direction: 150°SSE
Pressure: 29.94"   Gusts: NA
Location:  39.08°N, 86.76°W
Report Text: KBMG 230853Z 15007KT 10SM SCT032 OVC075 11/04 A2994 RMK AO2 SLP138 60000 T01060044 56019
Loading
Personal Weather Stations






























Interactive Weather Map New forecast layout! Learn more

10-Day Weather Forecast

Advertisements
Track Severe Weather on mobile